sensor_id;sensor_type;location;lat;lon;timestamp;temperature;humidity
42683;DHT22;28293;50.930;3.464;2022-11-13T00:00:32;5.70;91.60
42683;DHT22;28293;50.930;3.464;2022-11-13T00:02:58;5.70;91.60
42683;DHT22;28293;50.930;3.464;2022-11-13T00:05:24;5.70;91.60
42683;DHT22;28293;50.930;3.464;2022-11-13T00:07:50;5.70;91.70
42683;DHT22;28293;50.930;3.464;2022-11-13T00:10:15;5.70;91.60
42683;DHT22;28293;50.930;3.464;2022-11-13T00:12:41;5.60;91.60
42683;DHT22;28293;50.930;3.464;2022-11-13T00:15:07;5.60;91.70
42683;DHT22;28293;50.930;3.464;2022-11-13T00:17:33;5.60;91.70
42683;DHT22;28293;50.930;3.464;2022-11-13T00:19:58;5.60;91.60
42683;DHT22;28293;50.930;3.464;2022-11-13T00:22:24;5.60;91.40
42683;DHT22;28293;50.930;3.464;2022-11-13T00:24:50;5.60;91.40
42683;DHT22;28293;50.930;3.464;2022-11-13T00:27:15;5.60;91.40
42683;DHT22;28293;50.930;3.464;2022-11-13T00:29:41;5.60;91.40
42683;DHT22;28293;50.930;3.464;2022-11-13T00:32:06;5.60;91.50
42683;DHT22;28293;50.930;3.464;2022-11-13T00:34:32;5.60;91.40
42683;DHT22;28293;50.930;3.464;2022-11-13T00:36:58;5.60;91.50
42683;DHT22;28293;50.930;3.464;2022-11-13T00:39:23;5.60;91.50
42683;DHT22;28293;50.930;3.464;2022-11-13T00:41:49;5.60;91.50
42683;DHT22;28293;50.930;3.464;2022-11-13T00:44:14;5.50;91.40
42683;DHT22;28293;50.930;3.464;2022-11-13T00:46:40;5.60;91.30
42683;DHT22;28293;50.930;3.464;2022-11-13T00:49:06;5.50;91.20
42683;DHT22;28293;50.930;3.464;2022-11-13T00:51:31;5.40;91.10
42683;DHT22;28293;50.930;3.464;2022-11-13T00:53:57;5.40;91.10
42683;DHT22;28293;50.930;3.464;2022-11-13T00:56:23;5.40;91.10
42683;DHT22;28293;50.930;3.464;2022-11-13T00:58:48;5.30;91.20
42683;DHT22;28293;50.930;3.464;2022-11-13T01:01:16;5.40;91.20
42683;DHT22;28293;50.930;3.464;2022-11-13T01:03:42;5.30;91.30
42683;DHT22;28293;50.930;3.464;2022-11-13T01:06:15;5.30;91.30
42683;DHT22;28293;50.930;3.464;2022-11-13T01:08:42;5.30;91.40
42683;DHT22;28293;50.930;3.464;2022-11-13T01:11:09;5.30;91.40
42683;DHT22;28293;50.930;3.464;2022-11-13T01:13:35;5.30;91.40
42683;DHT22;28293;50.930;3.464;2022-11-13T01:16:05;5.30;91.30
42683;DHT22;28293;50.930;3.464;2022-11-13T01:18:31;5.30;91.30
42683;DHT22;28293;50.930;3.464;2022-11-13T01:21:04;5.30;91.20
42683;DHT22;28293;50.930;3.464;2022-11-13T01:23:30;5.30;91.20
42683;DHT22;28293;50.930;3.464;2022-11-13T01:26:13;5.30;91.30
42683;DHT22;28293;50.930;3.464;2022-11-13T01:28:40;5.30;91.30
42683;DHT22;28293;50.930;3.464;2022-11-13T01:31:08;5.30;91.30
42683;DHT22;28293;50.930;3.464;2022-11-13T01:33:34;5.30;91.10
42683;DHT22;28293;50.930;3.464;2022-11-13T01:36:07;5.30;91.10
42683;DHT22;28293;50.930;3.464;2022-11-13T01:38:33;5.20;91.00
42683;DHT22;28293;50.930;3.464;2022-11-13T01:40:59;5.20;91.10
42683;DHT22;28293;50.930;3.464;2022-11-13T01:43:28;5.30;91.20
42683;DHT22;28293;50.930;3.464;2022-11-13T01:48:43;5.30;91.10
42683;DHT22;28293;50.930;3.464;2022-11-13T01:51:18;5.30;91.10
42683;DHT22;28293;50.930;3.464;2022-11-13T01:53:46;5.30;91.00
42683;DHT22;28293;50.930;3.464;2022-11-13T01:56:14;5.20;91.00
42683;DHT22;28293;50.930;3.464;2022-11-13T01:58:42;5.20;91.10
42683;DHT22;28293;50.930;3.464;2022-11-13T02:01:09;5.30;91.30
42683;DHT22;28293;50.930;3.464;2022-11-13T02:03:34;5.30;91.20
42683;DHT22;28293;50.930;3.464;2022-11-13T02:06:00;5.30;91.20
42683;DHT22;28293;50.930;3.464;2022-11-13T02:08:26;5.30;91.30
42683;DHT22;28293;50.930;3.464;2022-11-13T02:10:52;5.30;91.50
42683;DHT22;28293;50.930;3.464;2022-11-13T02:13:19;5.30;91.70
42683;DHT22;28293;50.930;3.464;2022-11-13T02:15:45;5.30;91.70
42683;DHT22;28293;50.930;3.464;2022-11-13T02:18:13;5.40;91.80
42683;DHT22;28293;50.930;3.464;2022-11-13T02:20:43;5.40;91.80
42683;DHT22;28293;50.930;3.464;2022-11-13T02:23:20;5.40;91.80
42683;DHT22;28293;50.930;3.464;2022-11-13T02:25:51;5.40;91.90
42683;DHT22;28293;50.930;3.464;2022-11-13T02:28:18;5.40;91.90
42683;DHT22;28293;50.930;3.464;2022-11-13T02:30:43;5.40;92.00
42683;DHT22;28293;50.930;3.464;2022-11-13T02:33:31;5.40;92.00
42683;DHT22;28293;50.930;3.464;2022-11-13T02:35:57;5.40;92.10
42683;DHT22;28293;50.930;3.464;2022-11-13T02:38:23;5.40;92.10
42683;DHT22;28293;50.930;3.464;2022-11-13T02:40:49;5.40;92.10
42683;DHT22;28293;50.930;3.464;2022-11-13T02:43:14;5.40;92.00
42683;DHT22;28293;50.930;3.464;2022-11-13T02:45:40;5.40;91.90
42683;DHT22;28293;50.930;3.464;2022-11-13T02:48:06;5.40;91.70
42683;DHT22;28293;50.930;3.464;2022-11-13T02:50:33;5.30;91.70
42683;DHT22;28293;50.930;3.464;2022-11-13T02:52:59;5.30;91.70
42683;DHT22;28293;50.930;3.464;2022-11-13T02:55:25;5.30;91.70
42683;DHT22;28293;50.930;3.464;2022-11-13T02:57:51;5.30;91.70
42683;DHT22;28293;50.930;3.464;2022-11-13T03:00:17;5.20;91.70
42683;DHT22;28293;50.930;3.464;2022-11-13T03:02:42;5.20;91.60
42683;DHT22;28293;50.930;3.464;2022-11-13T03:05:08;5.20;91.70
42683;DHT22;28293;50.930;3.464;2022-11-13T03:07:34;5.10;91.80
42683;DHT22;28293;50.930;3.464;2022-11-13T03:09:59;5.10;91.90
42683;DHT22;28293;50.930;3.464;2022-11-13T03:12:25;5.10;92.00
42683;DHT22;28293;50.930;3.464;2022-11-13T03:14:51;5.10;92.10
42683;DHT22;28293;50.930;3.464;2022-11-13T03:17:16;5.10;92.20
42683;DHT22;28293;50.930;3.464;2022-11-13T03:19:42;5.10;92.20
42683;DHT22;28293;50.930;3.464;2022-11-13T03:22:08;5.10;92.20
42683;DHT22;28293;50.930;3.464;2022-11-13T03:24:33;5.00;92.20
42683;DHT22;28293;50.930;3.464;2022-11-13T03:26:59;5.00;92.30
42683;DHT22;28293;50.930;3.464;2022-11-13T03:29:24;5.00;92.40
42683;DHT22;28293;50.930;3.464;2022-11-13T03:31:50;5.00;92.40
42683;DHT22;28293;50.930;3.464;2022-11-13T03:34:16;5.00;92.40
42683;DHT22;28293;50.930;3.464;2022-11-13T03:36:41;5.00;92.40
42683;DHT22;28293;50.930;3.464;2022-11-13T03:39:07;5.00;92.40
42683;DHT22;28293;50.930;3.464;2022-11-13T03:41:33;5.00;92.40
42683;DHT22;28293;50.930;3.464;2022-11-13T03:43:58;5.00;92.50
42683;DHT22;28293;50.930;3.464;2022-11-13T03:46:24;5.00;92.50
42683;DHT22;28293;50.930;3.464;2022-11-13T03:48:49;4.90;92.40
42683;DHT22;28293;50.930;3.464;2022-11-13T03:51:15;4.90;92.40
42683;DHT22;28293;50.930;3.464;2022-11-13T03:53:41;4.90;92.40
42683;DHT22;28293;50.930;3.464;2022-11-13T03:56:07;4.90;92.50
42683;DHT22;28293;50.930;3.464;2022-11-13T03:58:32;4.90;92.50
42683;DHT22;28293;50.930;3.464;2022-11-13T04:00:58;4.80;92.40
42683;DHT22;28293;50.930;3.464;2022-11-13T04:03:24;4.80;92.40
42683;DHT22;28293;50.930;3.464;2022-11-13T04:05:49;4.90;92.50
42683;DHT22;28293;50.930;3.464;2022-11-13T04:08:16;4.90;92.50
42683;DHT22;28293;50.930;3.464;2022-11-13T04:10:42;4.90;92.30
42683;DHT22;28293;50.930;3.464;2022-11-13T04:13:08;4.90;92.30
42683;DHT22;28293;50.930;3.464;2022-11-13T04:15:34;4.90;92.30
42683;DHT22;28293;50.930;3.464;2022-11-13T04:18:00;4.90;92.20
42683;DHT22;28293;50.930;3.464;2022-11-13T04:20:25;4.90;92.20
42683;DHT22;28293;50.930;3.464;2022-11-13T04:22:57;4.90;92.10
42683;DHT22;28293;50.930;3.464;2022-11-13T04:25:24;4.90;92.20
42683;DHT22;28293;50.930;3.464;2022-11-13T04:27:50;4.90;92.20
42683;DHT22;28293;50.930;3.464;2022-11-13T04:30:16;5.00;92.30
42683;DHT22;28293;50.930;3.464;2022-11-13T04:32:42;5.00;92.30
42683;DHT22;28293;50.930;3.464;2022-11-13T04:35:07;5.10;92.40
42683;DHT22;28293;50.930;3.464;2022-11-13T04:37:33;5.10;92.40
42683;DHT22;28293;50.930;3.464;2022-11-13T04:39:59;5.00;92.40
42683;DHT22;28293;50.930;3.464;2022-11-13T04:42:24;5.10;92.40
42683;DHT22;28293;50.930;3.464;2022-11-13T04:45:09;5.10;92.40
42683;DHT22;28293;50.930;3.464;2022-11-13T04:47:35;5.10;92.50
42683;DHT22;28293;50.930;3.464;2022-11-13T04:50:01;5.10;92.50
42683;DHT22;28293;50.930;3.464;2022-11-13T04:52:26;5.20;92.50
42683;DHT22;28293;50.930;3.464;2022-11-13T04:54:53;5.20;92.50
42683;DHT22;28293;50.930;3.464;2022-11-13T04:57:19;5.20;92.50
42683;DHT22;28293;50.930;3.464;2022-11-13T04:59:45;5.20;92.50
42683;DHT22;28293;50.930;3.464;2022-11-13T05:02:10;5.20;92.60
42683;DHT22;28293;50.930;3.464;2022-11-13T05:04:36;5.20;92.50
42683;DHT22;28293;50.930;3.464;2022-11-13T05:07:02;5.10;92.50
42683;DHT22;28293;50.930;3.464;2022-11-13T05:09:27;5.10;92.50
42683;DHT22;28293;50.930;3.464;2022-11-13T05:11:53;5.20;92.60
42683;DHT22;28293;50.930;3.464;2022-11-13T05:14:18;5.20;92.60
42683;DHT22;28293;50.930;3.464;2022-11-13T05:16:44;5.20;92.70
42683;DHT22;28293;50.930;3.464;2022-11-13T05:19:09;5.20;92.60
42683;DHT22;28293;50.930;3.464;2022-11-13T05:21:36;5.30;92.60
42683;DHT22;28293;50.930;3.464;2022-11-13T05:24:03;5.20;92.50
42683;DHT22;28293;50.930;3.464;2022-11-13T05:26:30;5.20;92.50
42683;DHT22;28293;50.930;3.464;2022-11-13T05:28:57;5.20;92.50
42683;DHT22;28293;50.930;3.464;2022-11-13T05:31:23;5.20;92.60
42683;DHT22;28293;50.930;3.464;2022-11-13T05:33:49;5.20;92.60
42683;DHT22;28293;50.930;3.464;2022-11-13T05:36:17;5.30;92.60
42683;DHT22;28293;50.930;3.464;2022-11-13T05:38:43;5.20;92.70
42683;DHT22;28293;50.930;3.464;2022-11-13T05:41:18;5.30;92.70
42683;DHT22;28293;50.930;3.464;2022-11-13T05:43:44;5.30;92.70
42683;DHT22;28293;50.930;3.464;2022-11-13T05:46:21;5.30;92.80
42683;DHT22;28293;50.930;3.464;2022-11-13T05:48:51;5.40;92.80
42683;DHT22;28293;50.930;3.464;2022-11-13T05:51:19;5.30;92.80
42683;DHT22;28293;50.930;3.464;2022-11-13T05:53:45;5.30;92.80
42683;DHT22;28293;50.930;3.464;2022-11-13T05:56:14;5.30;92.90
42683;DHT22;28293;50.930;3.464;2022-11-13T05:58:41;5.30;92.80
42683;DHT22;28293;50.930;3.464;2022-11-13T06:04:13;5.30;92.70
42683;DHT22;28293;50.930;3.464;2022-11-13T06:06:38;5.20;92.70
42683;DHT22;28293;50.930;3.464;2022-11-13T06:09:05;5.30;92.60
42683;DHT22;28293;50.930;3.464;2022-11-13T06:11:31;5.20;92.70
42683;DHT22;28293;50.930;3.464;2022-11-13T06:13:57;5.20;92.60
42683;DHT22;28293;50.930;3.464;2022-11-13T06:16:27;5.10;92.70
42683;DHT22;28293;50.930;3.464;2022-11-13T06:18:55;5.20;92.70
42683;DHT22;28293;50.930;3.464;2022-11-13T06:21:25;5.20;92.60
42683;DHT22;28293;50.930;3.464;2022-11-13T06:23:50;5.10;92.70
42683;DHT22;28293;50.930;3.464;2022-11-13T06:26:22;5.10;92.70
42683;DHT22;28293;50.930;3.464;2022-11-13T06:28:48;5.10;92.70
42683;DHT22;28293;50.930;3.464;2022-11-13T06:31:34;5.10;92.60
42683;DHT22;28293;50.930;3.464;2022-11-13T06:34:01;5.10;92.60
42683;DHT22;28293;50.930;3.464;2022-11-13T06:36:32;5.10;92.60
42683;DHT22;28293;50.930;3.464;2022-11-13T06:38:58;5.10;92.60
42683;DHT22;28293;50.930;3.464;2022-11-13T06:41:27;5.10;92.50
42683;DHT22;28293;50.930;3.464;2022-11-13T06:43:54;5.10;92.70
42683;DHT22;28293;50.930;3.464;2022-11-13T06:46:22;5.10;92.70
42683;DHT22;28293;50.930;3.464;2022-11-13T06:48:48;5.00;92.70
42683;DHT22;28293;50.930;3.464;2022-11-13T06:51:19;5.10;92.80
42683;DHT22;28293;50.930;3.464;2022-11-13T06:53:45;5.10;92.80
42683;DHT22;28293;50.930;3.464;2022-11-13T06:56:11;5.10;92.60
42683;DHT22;28293;50.930;3.464;2022-11-13T06:58:37;4.90;92.60
42683;DHT22;28293;50.930;3.464;2022-11-13T07:01:08;5.00;92.80
42683;DHT22;28293;50.930;3.464;2022-11-13T07:03:34;5.00;92.80
42683;DHT22;28293;50.930;3.464;2022-11-13T07:06:04;5.10;92.90
42683;DHT22;28293;50.930;3.464;2022-11-13T07:08:31;5.10;92.90
42683;DHT22;28293;50.930;3.464;2022-11-13T07:10:57;5.20;92.90
42683;DHT22;28293;50.930;3.464;2022-11-13T07:13:24;5.20;92.90
42683;DHT22;28293;50.930;3.464;2022-11-13T07:15:49;5.20;92.90
42683;DHT22;28293;50.930;3.464;2022-11-13T07:18:15;5.30;93.00
42683;DHT22;28293;50.930;3.464;2022-11-13T07:20:41;5.40;93.10
42683;DHT22;28293;50.930;3.464;2022-11-13T07:23:06;5.40;93.00
42683;DHT22;28293;50.930;3.464;2022-11-13T07:25:32;5.40;92.90
42683;DHT22;28293;50.930;3.464;2022-11-13T07:27:58;5.40;92.90
42683;DHT22;28293;50.930;3.464;2022-11-13T07:30:24;5.30;92.60
42683;DHT22;28293;50.930;3.464;2022-11-13T07:32:50;5.20;92.50
42683;DHT22;28293;50.930;3.464;2022-11-13T07:35:16;5.10;92.60
42683;DHT22;28293;50.930;3.464;2022-11-13T07:37:42;5.20;92.80
42683;DHT22;28293;50.930;3.464;2022-11-13T07:40:09;5.20;92.80
42683;DHT22;28293;50.930;3.464;2022-11-13T07:42:35;5.30;93.00
42683;DHT22;28293;50.930;3.464;2022-11-13T07:45:00;5.30;93.00
42683;DHT22;28293;50.930;3.464;2022-11-13T07:47:26;5.40;93.00
42683;DHT22;28293;50.930;3.464;2022-11-13T07:49:51;5.40;92.90
42683;DHT22;28293;50.930;3.464;2022-11-13T07:52:17;5.40;92.80
42683;DHT22;28293;50.930;3.464;2022-11-13T07:54:43;5.40;92.90
42683;DHT22;28293;50.930;3.464;2022-11-13T07:57:08;5.30;92.90
42683;DHT22;28293;50.930;3.464;2022-11-13T07:59:34;5.40;93.10
42683;DHT22;28293;50.930;3.464;2022-11-13T08:02:00;5.40;93.10
42683;DHT22;28293;50.930;3.464;2022-11-13T08:04:25;5.40;93.10
42683;DHT22;28293;50.930;3.464;2022-11-13T08:06:51;5.40;93.10
42683;DHT22;28293;50.930;3.464;2022-11-13T08:09:17;5.40;93.10
42683;DHT22;28293;50.930;3.464;2022-11-13T08:11:42;5.50;93.30
42683;DHT22;28293;50.930;3.464;2022-11-13T08:14:09;5.50;93.30
42683;DHT22;28293;50.930;3.464;2022-11-13T08:16:35;5.60;93.40
42683;DHT22;28293;50.930;3.464;2022-11-13T08:19:01;5.70;93.50
42683;DHT22;28293;50.930;3.464;2022-11-13T08:21:27;5.80;93.50
42683;DHT22;28293;50.930;3.464;2022-11-13T08:23:53;5.90;93.40
42683;DHT22;28293;50.930;3.464;2022-11-13T08:26:18;6.00;93.40
42683;DHT22;28293;50.930;3.464;2022-11-13T08:28:44;6.10;93.40
42683;DHT22;28293;50.930;3.464;2022-11-13T08:31:11;6.10;93.30
42683;DHT22;28293;50.930;3.464;2022-11-13T08:33:37;6.10;93.20
42683;DHT22;28293;50.930;3.464;2022-11-13T08:36:03;6.10;93.20
42683;DHT22;28293;50.930;3.464;2022-11-13T08:38:29;6.20;93.20
42683;DHT22;28293;50.930;3.464;2022-11-13T08:40:59;6.20;93.30
42683;DHT22;28293;50.930;3.464;2022-11-13T08:43:25;6.40;93.20
42683;DHT22;28293;50.930;3.464;2022-11-13T08:45:51;6.40;93.10
42683;DHT22;28293;50.930;3.464;2022-11-13T08:48:17;6.50;92.80
42683;DHT22;28293;50.930;3.464;2022-11-13T08:50:43;6.40;92.70
42683;DHT22;28293;50.930;3.464;2022-11-13T08:53:08;6.50;92.50
42683;DHT22;28293;50.930;3.464;2022-11-13T08:55:34;6.60;92.60
42683;DHT22;28293;50.930;3.464;2022-11-13T08:58:01;6.60;92.40
42683;DHT22;28293;50.930;3.464;2022-11-13T09:00:28;6.60;92.30
42683;DHT22;28293;50.930;3.464;2022-11-13T09:02:55;6.60;92.30
42683;DHT22;28293;50.930;3.464;2022-11-13T09:05:22;6.70;92.30
42683;DHT22;28293;50.930;3.464;2022-11-13T09:07:48;6.80;92.30
42683;DHT22;28293;50.930;3.464;2022-11-13T09:10:15;6.90;92.30
42683;DHT22;28293;50.930;3.464;2022-11-13T09:12:41;7.00;92.40
42683;DHT22;28293;50.930;3.464;2022-11-13T09:15:07;7.10;92.40
42683;DHT22;28293;50.930;3.464;2022-11-13T09:17:33;7.20;92.10
42683;DHT22;28293;50.930;3.464;2022-11-13T09:19:58;7.10;91.70
42683;DHT22;28293;50.930;3.464;2022-11-13T09:22:24;7.20;91.80
42683;DHT22;28293;50.930;3.464;2022-11-13T09:24:50;7.30;91.90
42683;DHT22;28293;50.930;3.464;2022-11-13T09:27:15;7.40;92.00
42683;DHT22;28293;50.930;3.464;2022-11-13T09:29:41;7.50;91.90
42683;DHT22;28293;50.930;3.464;2022-11-13T09:32:07;7.60;91.90
42683;DHT22;28293;50.930;3.464;2022-11-13T09:34:32;7.70;91.90
42683;DHT22;28293;50.930;3.464;2022-11-13T09:36:59;7.80;91.70
42683;DHT22;28293;50.930;3.464;2022-11-13T09:39:24;7.90;91.50
42683;DHT22;28293;50.930;3.464;2022-11-13T09:42:08;7.90;91.60
42683;DHT22;28293;50.930;3.464;2022-11-13T09:44:40;8.00;91.10
42683;DHT22;28293;50.930;3.464;2022-11-13T09:47:14;8.10;91.40
42683;DHT22;28293;50.930;3.464;2022-11-13T09:49:43;8.10;91.40
42683;DHT22;28293;50.930;3.464;2022-11-13T09:52:17;8.20;91.40
42683;DHT22;28293;50.930;3.464;2022-11-13T09:54:45;8.30;91.30
42683;DHT22;28293;50.930;3.464;2022-11-13T10:00:10;8.20;90.50
42683;DHT22;28293;50.930;3.464;2022-11-13T10:05:51;8.30;90.50
42683;DHT22;28293;50.930;3.464;2022-11-13T10:08:47;8.40;90.50
42683;DHT22;28293;50.930;3.464;2022-11-13T10:13:53;8.50;91.00
42683;DHT22;28293;50.930;3.464;2022-11-13T10:16:32;8.60;90.50
42683;DHT22;28293;50.930;3.464;2022-11-13T10:19:07;8.60;90.70
42683;DHT22;28293;50.930;3.464;2022-11-13T10:21:55;8.70;90.90
42683;DHT22;28293;50.930;3.464;2022-11-13T10:24:41;8.80;90.90
42683;DHT22;28293;50.930;3.464;2022-11-13T10:27:09;8.80;90.70
42683;DHT22;28293;50.930;3.464;2022-11-13T10:29:35;8.90;90.70
42683;DHT22;28293;50.930;3.464;2022-11-13T10:32:21;9.10;90.90
42683;DHT22;28293;50.930;3.464;2022-11-13T10:37:51;9.20;90.70
42683;DHT22;28293;50.930;3.464;2022-11-13T10:40:39;9.20;90.60
42683;DHT22;28293;50.930;3.464;2022-11-13T10:45:38;9.40;90.70
42683;DHT22;28293;50.930;3.464;2022-11-13T10:48:04;9.50;90.80
42683;DHT22;28293;50.930;3.464;2022-11-13T10:50:31;9.50;90.80
42683;DHT22;28293;50.930;3.464;2022-11-13T10:52:57;9.60;90.80
42683;DHT22;28293;50.930;3.464;2022-11-13T10:58:00;9.80;90.40
42683;DHT22;28293;50.930;3.464;2022-11-13T11:00:36;9.80;90.40
42683;DHT22;28293;50.930;3.464;2022-11-13T11:03:06;9.90;90.30
42683;DHT22;28293;50.930;3.464;2022-11-13T11:05:32;9.90;90.40
42683;DHT22;28293;50.930;3.464;2022-11-13T11:07:58;10.10;90.60
42683;DHT22;28293;50.930;3.464;2022-11-13T11:10:35;10.20;90.50
42683;DHT22;28293;50.930;3.464;2022-11-13T11:13:11;10.30;90.50
42683;DHT22;28293;50.930;3.464;2022-11-13T11:15:57;10.60;91.00
42683;DHT22;28293;50.930;3.464;2022-11-13T11:18:29;10.70;90.10
42683;DHT22;28293;50.930;3.464;2022-11-13T11:20:58;10.60;89.60
42683;DHT22;28293;50.930;3.464;2022-11-13T11:26:11;10.60;89.70
42683;DHT22;28293;50.930;3.464;2022-11-13T11:28:51;10.60;89.10
42683;DHT22;28293;50.930;3.464;2022-11-13T11:31:49;10.90;90.00
42683;DHT22;28293;50.930;3.464;2022-11-13T11:37:04;11.10;89.10
42683;DHT22;28293;50.930;3.464;2022-11-13T11:39:49;11.20;88.30
42683;DHT22;28293;50.930;3.464;2022-11-13T11:45:24;11.20;88.00
42683;DHT22;28293;50.930;3.464;2022-11-13T11:47:52;11.20;87.90
42683;DHT22;28293;50.930;3.464;2022-11-13T11:56:43;11.50;87.20
42683;DHT22;28293;50.930;3.464;2022-11-13T12:05:20;11.80;86.50
42683;DHT22;28293;50.930;3.464;2022-11-13T12:07:56;11.90;87.10
42683;DHT22;28293;50.930;3.464;2022-11-13T12:16:44;11.70;87.20
42683;DHT22;28293;50.930;3.464;2022-11-13T12:19:28;11.40;87.60
42683;DHT22;28293;50.930;3.464;2022-11-13T12:22:11;11.20;88.80
42683;DHT22;28293;50.930;3.464;2022-11-13T12:30:16;11.30;89.90
42683;DHT22;28293;50.930;3.464;2022-11-13T12:35:19;11.30;89.40
42683;DHT22;28293;50.930;3.464;2022-11-13T12:40:24;11.40;89.70
42683;DHT22;28293;50.930;3.464;2022-11-13T12:46:03;11.40;89.60
42683;DHT22;28293;50.930;3.464;2022-11-13T12:48:39;11.40;89.30
42683;DHT22;28293;50.930;3.464;2022-11-13T12:51:08;11.50;89.70
42683;DHT22;28293;50.930;3.464;2022-11-13T12:53:49;11.60;89.50
42683;DHT22;28293;50.930;3.464;2022-11-13T12:59:00;11.90;89.30
42683;DHT22;28293;50.930;3.464;2022-11-13T13:01:31;11.90;88.70
42683;DHT22;28293;50.930;3.464;2022-11-13T13:04:47;12.00;88.80
42683;DHT22;28293;50.930;3.464;2022-11-13T13:15:53;12.10;88.00
42683;DHT22;28293;50.930;3.464;2022-11-13T13:23:39;12.00;88.20
42683;DHT22;28293;50.930;3.464;2022-11-13T13:28:54;12.10;88.40
42683;DHT22;28293;50.930;3.464;2022-11-13T13:31:45;12.20;88.30
42683;DHT22;28293;50.930;3.464;2022-11-13T13:34:23;12.20;88.20
42683;DHT22;28293;50.930;3.464;2022-11-13T13:37:00;12.20;88.00
42683;DHT22;28293;50.930;3.464;2022-11-13T13:39:51;12.20;87.90
42683;DHT22;28293;50.930;3.464;2022-11-13T13:47:58;12.20;87.60
42683;DHT22;28293;50.930;3.464;2022-11-13T13:50:28;12.30;87.70
42683;DHT22;28293;50.930;3.464;2022-11-13T13:52:56;12.20;87.70
42683;DHT22;28293;50.930;3.464;2022-11-13T13:55:34;12.30;87.70
42683;DHT22;28293;50.930;3.464;2022-11-13T13:58:08;12.30;87.60
42683;DHT22;28293;50.930;3.464;2022-11-13T14:00:36;12.30;87.60
42683;DHT22;28293;50.930;3.464;2022-11-13T14:03:01;12.30;87.30
42683;DHT22;28293;50.930;3.464;2022-11-13T14:05:34;12.30;87.40
42683;DHT22;28293;50.930;3.464;2022-11-13T14:08:01;12.30;87.20
42683;DHT22;28293;50.930;3.464;2022-11-13T14:10:34;12.30;87.40
42683;DHT22;28293;50.930;3.464;2022-11-13T14:13:01;12.30;87.40
42683;DHT22;28293;50.930;3.464;2022-11-13T14:15:29;12.30;87.40
42683;DHT22;28293;50.930;3.464;2022-11-13T14:18:06;12.30;87.40
42683;DHT22;28293;50.930;3.464;2022-11-13T14:20:54;12.30;87.30
42683;DHT22;28293;50.930;3.464;2022-11-13T14:23:42;12.30;87.30
42683;DHT22;28293;50.930;3.464;2022-11-13T14:26:09;12.30;87.30
42683;DHT22;28293;50.930;3.464;2022-11-13T14:28:53;12.30;87.30
42683;DHT22;28293;50.930;3.464;2022-11-13T14:31:28;12.30;87.50
42683;DHT22;28293;50.930;3.464;2022-11-13T14:33:55;12.30;87.30
42683;DHT22;28293;50.930;3.464;2022-11-13T14:36:27;12.30;87.40
42683;DHT22;28293;50.930;3.464;2022-11-13T14:38:56;12.30;87.60
42683;DHT22;28293;50.930;3.464;2022-11-13T14:41:44;12.30;87.80
42683;DHT22;28293;50.930;3.464;2022-11-13T14:44:11;12.30;87.40
42683;DHT22;28293;50.930;3.464;2022-11-13T14:46:39;12.20;87.40
42683;DHT22;28293;50.930;3.464;2022-11-13T14:49:35;12.20;87.40
42683;DHT22;28293;50.930;3.464;2022-11-13T14:52:02;12.20;86.90
42683;DHT22;28293;50.930;3.464;2022-11-13T14:54:35;12.20;86.20
42683;DHT22;28293;50.930;3.464;2022-11-13T14:57:19;12.10;85.60
42683;DHT22;28293;50.930;3.464;2022-11-13T14:59:45;12.10;85.50
42683;DHT22;28293;50.930;3.464;2022-11-13T15:02:11;12.10;85.00
42683;DHT22;28293;50.930;3.464;2022-11-13T15:04:37;12.00;83.80
42683;DHT22;28293;50.930;3.464;2022-11-13T15:07:22;12.00;83.60
42683;DHT22;28293;50.930;3.464;2022-11-13T15:09:49;11.90;83.50
42683;DHT22;28293;50.930;3.464;2022-11-13T15:12:14;11.80;82.90
42683;DHT22;28293;50.930;3.464;2022-11-13T15:14:40;11.80;82.70
42683;DHT22;28293;50.930;3.464;2022-11-13T15:17:15;11.70;82.20
42683;DHT22;28293;50.930;3.464;2022-11-13T15:19:42;11.70;81.70
42683;DHT22;28293;50.930;3.464;2022-11-13T15:22:11;11.60;81.80
42683;DHT22;28293;50.930;3.464;2022-11-13T15:24:37;11.60;81.90
42683;DHT22;28293;50.930;3.464;2022-11-13T15:27:03;11.60;82.10
42683;DHT22;28293;50.930;3.464;2022-11-13T15:29:30;11.50;82.20
42683;DHT22;28293;50.930;3.464;2022-11-13T15:31:56;11.40;82.40
42683;DHT22;28293;50.930;3.464;2022-11-13T15:34:22;11.30;82.60
42683;DHT22;28293;50.930;3.464;2022-11-13T15:36:47;11.30;82.90
42683;DHT22;28293;50.930;3.464;2022-11-13T15:39:13;11.20;83.00
42683;DHT22;28293;50.930;3.464;2022-11-13T15:41:40;11.10;83.20
42683;DHT22;28293;50.930;3.464;2022-11-13T15:44:15;11.00;83.40
42683;DHT22;28293;50.930;3.464;2022-11-13T15:46:40;11.00;83.70
42683;DHT22;28293;50.930;3.464;2022-11-13T15:49:06;10.80;83.70
42683;DHT22;28293;50.930;3.464;2022-11-13T15:51:42;10.70;83.90
42683;DHT22;28293;50.930;3.464;2022-11-13T15:54:33;10.60;84.10
42683;DHT22;28293;50.930;3.464;2022-11-13T15:57:01;10.60;84.40
42683;DHT22;28293;50.930;3.464;2022-11-13T15:59:27;10.50;84.60
42683;DHT22;28293;50.930;3.464;2022-11-13T16:01:53;10.40;84.90
42683;DHT22;28293;50.930;3.464;2022-11-13T16:04:20;10.30;85.10
42683;DHT22;28293;50.930;3.464;2022-11-13T16:06:46;10.20;85.40
42683;DHT22;28293;50.930;3.464;2022-11-13T16:09:13;10.10;85.60
42683;DHT22;28293;50.930;3.464;2022-11-13T16:11:40;10.10;85.90
42683;DHT22;28293;50.930;3.464;2022-11-13T16:14:06;9.90;86.10
42683;DHT22;28293;50.930;3.464;2022-11-13T16:16:39;9.90;86.30
42683;DHT22;28293;50.930;3.464;2022-11-13T16:19:12;9.70;86.60
42683;DHT22;28293;50.930;3.464;2022-11-13T16:21:39;9.70;87.00
42683;DHT22;28293;50.930;3.464;2022-11-13T16:24:05;9.60;87.20
42683;DHT22;28293;50.930;3.464;2022-11-13T16:26:31;9.50;87.50
42683;DHT22;28293;50.930;3.464;2022-11-13T16:28:56;9.50;87.60
42683;DHT22;28293;50.930;3.464;2022-11-13T16:31:22;9.40;87.80
42683;DHT22;28293;50.930;3.464;2022-11-13T16:33:48;9.30;87.90
42683;DHT22;28293;50.930;3.464;2022-11-13T16:36:16;9.20;88.10
42683;DHT22;28293;50.930;3.464;2022-11-13T16:38:42;9.10;88.30
42683;DHT22;28293;50.930;3.464;2022-11-13T16:41:12;9.10;88.50
42683;DHT22;28293;50.930;3.464;2022-11-13T16:43:38;9.10;88.50
42683;DHT22;28293;50.930;3.464;2022-11-13T16:46:23;9.00;88.60
42683;DHT22;28293;50.930;3.464;2022-11-13T16:48:50;8.90;88.80
42683;DHT22;28293;50.930;3.464;2022-11-13T16:51:16;8.90;89.00
42683;DHT22;28293;50.930;3.464;2022-11-13T16:53:42;8.80;89.10
42683;DHT22;28293;50.930;3.464;2022-11-13T16:56:17;8.80;89.20
42683;DHT22;28293;50.930;3.464;2022-11-13T16:58:45;8.70;89.30
42683;DHT22;28293;50.930;3.464;2022-11-13T17:01:15;8.60;89.40
42683;DHT22;28293;50.930;3.464;2022-11-13T17:03:41;8.60;89.50
42683;DHT22;28293;50.930;3.464;2022-11-13T17:06:31;8.50;89.60
42683;DHT22;28293;50.930;3.464;2022-11-13T17:08:58;8.50;89.80
42683;DHT22;28293;50.930;3.464;2022-11-13T17:11:26;8.40;90.00
42683;DHT22;28293;50.930;3.464;2022-11-13T17:13:53;8.40;90.10
42683;DHT22;28293;50.930;3.464;2022-11-13T17:16:20;8.40;90.20
42683;DHT22;28293;50.930;3.464;2022-11-13T17:18:47;8.40;90.40
42683;DHT22;28293;50.930;3.464;2022-11-13T17:21:14;8.40;90.50